Time;durP1;ratioP1;P1;durP2;ratioP2;P2;SDS_P1;SDS_P2;PMS_P1;PMS_P2;Temp;Humidity;BMP_temperature;BMP_pressure;BME280_temperature;BME280_humidity;BME280_pressure;Samples;Min_cycle;Max_cycle;Signal;HPM_P1;HPM_P2
2022/02/24 00:00:19;;;;;;;3.70;3.60;;;;;;;6.53;74.04;101355.09;6012046;23;20031;-67
2022/02/24 00:02:46;;;;;;;3.63;3.53;;;;;;;6.17;74.51;101296.03;6022741;23;21268;-68
2022/02/24 00:05:14;;;;;;;3.50;3.40;;;;;;;6.56;74.85;101339.38;6028644;23;20058;-69
2022/02/24 00:07:40;;;;;;;3.70;3.60;;;;;;;6.66;74.85;101348.69;5971818;23;20019;-70
2022/02/24 00:10:10;;;;;;;3.40;3.30;;;;;;;6.14;73.96;101224.88;6032405;23;20029;-71
2022/02/24 00:12:38;;;;;;;5.18;4.97;;;;;;;6.45;73.65;101273.59;6020729;23;20117;-71
2022/02/24 00:15:06;;;;;;;3.70;3.60;;;;;;;6.63;74.29;101287.91;6002018;23;20023;-67
2022/02/24 00:17:32;;;;;;;5.25;5.05;;;;;;;6.92;73.92;101321.91;6003832;23;20115;-68
2022/02/24 00:19:59;;;;;;;3.60;3.50;;;;;;;6.40;73.38;101245.06;6025740;23;20027;-70
2022/02/24 00:22:26;;;;;;;5.45;5.25;;;;;;;6.98;73.08;101326.97;6020207;23;20017;-69
2022/02/24 00:24:54;;;;;;;3.60;3.50;;;;;;;6.32;73.95;101213.97;6021644;23;20042;-68
2022/02/24 00:27:20;;;;;;;3.83;3.70;;;;;;;6.96;72.56;101301.81;6006056;23;20026;-68
2022/02/24 00:29:47;;;;;;;4.65;4.43;;;;;;;6.48;73.49;101224.00;5997785;23;20091;-68
2022/02/24 00:32:13;;;;;;;3.63;3.53;;;;;;;6.47;72.92;101209.25;6032358;23;20089;-70
2022/02/24 00:34:40;;;;;;;4.03;3.83;;;;;;;6.79;73.12;101269.22;6012039;23;20038;-68
2022/02/24 00:37:08;;;;;;;3.63;3.53;;;;;;;7.02;73.31;101300.81;6031560;23;20457;-68
2022/02/24 00:39:35;;;;;;;5.18;4.97;;;;;;;6.59;73.24;101232.38;5975569;23;20385;-69
2022/02/24 00:42:01;;;;;;;3.50;3.40;;;;;;;6.66;73.99;101246.13;6009044;23;20371;-68
2022/02/24 00:44:28;;;;;;;5.15;4.95;;;;;;;6.79;73.81;101287.50;6032092;23;20061;-68
2022/02/24 00:46:54;;;;;;;3.60;3.50;;;;;;;6.18;74.15;101188.25;6008909;23;20036;-68
2022/02/24 00:49:22;;;;;;;4.22;4.03;;;;;;;6.95;74.10;101303.56;6039493;23;20059;-68
2022/02/24 00:51:49;;;;;;;4.20;4.00;;;;;;;6.54;73.95;101229.91;6002532;23;20092;-68
2022/02/24 00:54:16;;;;;;;4.18;3.88;;;;;;;6.07;74.30;101166.84;6015790;23;20091;-68
2022/02/24 00:56:42;;;;;;;3.75;3.65;;;;;;;6.91;74.63;101291.50;5997561;23;20867;-70
2022/02/24 00:59:09;;;;;;;3.58;3.47;;;;;;;6.25;74.78;101199.38;6030342;23;20025;-70
2022/02/24 01:01:35;;;;;;;4.82;4.63;;;;;;;6.46;74.93;101225.81;5993547;23;20099;-69
2022/02/24 01:04:02;;;;;;;3.50;3.40;;;;;;;6.66;75.19;101252.19;6025831;23;20035;-69
2022/02/24 01:06:54;;;;;;;5.90;5.63;;;;;;;6.88;74.44;101288.97;6026286;23;20029;-70
2022/02/24 01:09:27;;;;;;;4.30;4.15;;;;;;;6.88;75.14;101285.53;5995009;23;20116;-70
2022/02/24 01:12:13;;;;;;;3.75;3.65;;;;;;;6.58;75.20;101243.72;5994835;23;20019;-69
2022/02/24 01:14:40;;;;;;;4.15;3.95;;;;;;;6.13;75.55;101160.59;6014009;23;20404;-69
2022/02/24 01:17:07;;;;;;;4.32;4.15;;;;;;;6.21;75.33;101174.28;5986501;23;20047;-71
2022/02/24 01:19:33;;;;;;;4.13;3.92;;;;;;;6.73;75.29;101245.88;6021185;23;20086;-70
2022/02/24 01:22:00;;;;;;;3.50;3.40;;;;;;;6.12;74.81;101143.28;6018057;23;20031;-69
2022/02/24 01:24:26;;;;;;;3.60;3.50;;;;;;;6.84;75.33;101256.06;6022765;23;20015;-68
2022/02/24 01:26:53;;;;;;;4.22;4.03;;;;;;;6.18;75.74;101157.00;6037147;23;20610;-68
2022/02/24 01:29:21;;;;;;;3.67;3.58;;;;;;;6.75;75.33;101254.53;6002233;23;20123;-67
2022/02/24 01:31:48;;;;;;;3.60;3.50;;;;;;;5.98;75.17;101117.59;6030524;23;20074;-68
2022/02/24 01:34:16;;;;;;;3.53;3.42;;;;;;;6.81;75.26;101250.06;6030486;23;20053;-69
2022/02/24 01:36:43;;;;;;;4.10;3.90;;;;;;;6.79;75.86;101243.16;5972007;23;20027;-70
2022/02/24 01:39:09;;;;;;;3.53;3.42;;;;;;;6.72;75.84;101235.53;6017619;23;20058;-69
2022/02/24 01:41:36;;;;;;;5.40;5.20;;;;;;;6.82;75.29;101242.19;6025531;23;20007;-68
2022/02/24 01:44:10;;;;;;;3.50;3.40;;;;;;;6.81;75.13;101240.47;6045263;23;20093;-70
2022/02/24 01:46:38;;;;;;;5.25;5.05;;;;;;;6.79;75.72;101231.84;6035734;23;20031;-70
2022/02/24 01:49:06;;;;;;;3.60;3.50;;;;;;;6.81;76.33;101226.56;6053100;23;20018;-70
2022/02/24 01:51:33;;;;;;;3.90;3.70;;;;;;;6.21;76.08;101130.00;6037328;23;20595;-69
2022/02/24 01:54:00;;;;;;;3.78;3.67;;;;;;;6.82;76.36;101226.53;6026111;23;20011;-70
2022/02/24 01:56:29;;;;;;;5.30;5.07;;;;;;;6.02;76.00;101087.94;6031075;23;20455;-67
2022/02/24 01:58:55;;;;;;;3.50;3.40;;;;;;;6.78;76.66;101210.13;6043202;23;20019;-67
2022/02/24 02:01:22;;;;;;;3.70;3.58;;;;;;;6.77;77.05;101205.78;6009696;23;20070;-70
2022/02/24 02:03:51;;;;;;;3.50;3.40;;;;;;;6.82;75.82;101204.81;6007404;23;20072;-70
2022/02/24 02:06:24;;;;;;;3.53;3.42;;;;;;;6.80;76.75;101197.03;6026524;23;20079;-68
2022/02/24 02:08:50;;;;;;;3.60;3.50;;;;;;;6.72;76.09;101176.38;6001756;23;20082;-70
2022/02/24 02:11:17;;;;;;;3.67;3.58;;;;;;;6.76;76.11;101184.97;6034163;23;20072;-70
2022/02/24 02:13:43;;;;;;;3.80;3.70;;;;;;;6.74;77.07;101187.63;5996913;23;20112;-70
2022/02/24 02:16:10;;;;;;;3.63;3.53;;;;;;;6.62;77.19;101169.72;6035094;23;20032;-69
2022/02/24 02:18:38;;;;;;;5.18;4.97;;;;;;;6.74;76.92;101182.41;6031198;23;20010;-68
2022/02/24 02:21:05;;;;;;;3.60;3.50;;;;;;;6.62;76.03;101159.28;6008779;23;20031;-68
2022/02/24 02:23:31;;;;;;;3.70;3.60;;;;;;;6.57;76.39;101154.22;6039525;23;20028;-68
2022/02/24 02:25:57;;;;;;;3.53;3.42;;;;;;;6.72;76.07;101179.00;5998135;23;20022;-71
2022/02/24 02:28:25;;;;;;;3.60;3.50;;;;;;;6.12;76.98;101080.75;6001955;23;20049;-70
2022/02/24 02:30:51;;;;;;;3.40;3.30;;;;;;;6.53;76.96;101149.09;5999942;23;20446;-70
2022/02/24 02:33:18;;;;;;;3.40;3.30;;;;;;;6.12;76.68;101063.34;6002544;23;20019;-68
2022/02/24 02:35:44;;;;;;;3.92;3.72;;;;;;;6.51;77.52;101127.44;6029673;23;20055;-70
2022/02/24 02:38:12;;;;;;;3.40;3.30;;;;;;;6.44;77.43;101118.94;6033726;23;20015;-70
2022/02/24 02:40:40;;;;;;;4.60;4.40;;;;;;;6.40;76.89;101114.72;5989478;23;20044;-69
2022/02/24 02:43:08;;;;;;;3.42;3.33;;;;;;;6.67;77.31;101167.81;6036782;23;20019;-68
2022/02/24 02:45:36;;;;;;;5.35;5.15;;;;;;;6.65;76.62;101161.78;6040070;23;20683;-68
2022/02/24 02:48:02;;;;;;;3.40;3.30;;;;;;;6.05;77.09;101060.94;6003650;23;20066;-70
2022/02/24 02:50:29;;;;;;;4.75;4.55;;;;;;;6.46;77.28;101129.34;6007620;23;20031;-69
2022/02/24 02:52:56;;;;;;;4.47;4.28;;;;;;;6.07;77.22;101044.38;6001823;23;20036;-71
2022/02/24 02:55:22;;;;;;;3.67;3.58;;;;;;;6.10;76.82;101048.66;6045764;23;20014;-71
2022/02/24 02:57:48;;;;;;;3.38;3.28;;;;;;;6.65;77.92;101129.66;6029211;23;20035;-70
2022/02/24 03:00:17;;;;;;;3.40;3.30;;;;;;;6.65;76.84;101124.44;6033484;23;20053;-68
2022/02/24 03:02:46;;;;;;;3.50;3.40;;;;;;;6.65;77.68;101129.66;6028541;23;20019;-68
2022/02/24 03:05:12;;;;;;;3.50;3.40;;;;;;;6.66;77.42;101120.94;6032883;23;20533;-69
2022/02/24 03:07:39;;;;;;;4.70;4.50;;;;;;;6.66;77.54;101115.72;6023540;23;20092;-69
2022/02/24 03:10:07;;;;;;;3.50;3.40;;;;;;;6.66;76.76;101110.50;5999818;23;20479;-69
2022/02/24 03:12:35;;;;;;;5.35;5.15;;;;;;;6.06;76.78;101021.00;6036193;23;20483;-69
2022/02/24 03:15:13;;;;;;;3.60;3.50;;;;;;;6.67;77.26;101104.38;6028997;23;20087;-69
2022/02/24 03:17:41;;;;;;;4.55;4.35;;;;;;;6.67;77.41;101092.19;5998736;23;20019;-68
2022/02/24 03:20:09;;;;;;;3.40;3.30;;;;;;;6.68;76.37;101093.91;6029684;23;20022;-68
2022/02/24 03:22:36;;;;;;;5.15;4.95;;;;;;;6.68;77.50;101093.91;6022881;23;20635;-69
2022/02/24 03:25:03;;;;;;;3.40;3.30;;;;;;;6.43;77.48;101048.59;6013946;23;20029;-70
2022/02/24 03:27:29;;;;;;;5.63;5.35;;;;;;;6.72;77.08;101084.25;6041031;23;20039;-69
2022/02/24 03:29:56;;;;;;;4.00;3.72;;;;;;;6.73;77.01;101076.34;6000156;23;20025;-71
2022/02/24 03:32:23;;;;;;;3.88;3.72;;;;;;;6.75;77.31;101074.53;6026894;23;20439;-71
2022/02/24 03:34:50;;;;;;;3.88;3.72;;;;;;;6.76;77.27;101072.81;6026523;23;20589;-71
2022/02/24 03:37:17;;;;;;;3.55;3.45;;;;;;;6.79;76.32;101075.31;6005651;23;20089;-71
2022/02/24 03:39:44;;;;;;;3.60;3.50;;;;;;;6.78;76.22;101065.78;6035645;23;20045;-69
2022/02/24 03:42:11;;;;;;;3.67;3.58;;;;;;;6.79;76.96;101057.94;6038101;23;20387;-69
2022/02/24 03:44:37;;;;;;;4.80;4.60;;;;;;;6.52;76.22;101014.44;6005562;23;20154;-68
2022/02/24 03:47:04;;;;;;;3.40;3.30;;;;;;;6.56;76.01;101013.44;6038480;23;20457;-69
2022/02/24 03:49:43;;;;;;;3.80;3.70;;;;;;;6.63;76.54;101024.53;6029774;23;20010;-71
2022/02/24 03:52:09;;;;;;;3.47;3.38;;;;;;;6.83;75.32;101056.06;6038869;23;20036;-70
2022/02/24 03:54:36;;;;;;;5.05;4.85;;;;;;;6.83;75.49;101044.78;6029831;23;20014;-71
2022/02/24 03:57:02;;;;;;;3.58;3.47;;;;;;;6.66;76.09;101019.22;6050817;23;20022;-71
2022/02/24 03:59:29;;;;;;;5.07;4.88;;;;;;;5.91;76.49;100890.25;6020973;23;20531;-71
2022/02/24 04:01:57;;;;;;;3.90;3.70;;;;;;;6.81;76.02;101037.00;6012195;23;20038;-68
2022/02/24 04:04:24;;;;;;;3.85;3.70;;;;;;;6.65;75.85;101007.91;6027207;23;20022;-69
2022/02/24 04:06:51;;;;;;;3.53;3.42;;;;;;;5.85;76.02;100869.56;6002612;23;20023;-70
2022/02/24 04:09:17;;;;;;;4.00;3.80;;;;;;;6.82;75.76;101027.44;6029805;23;20014;-70
2022/02/24 04:11:44;;;;;;;3.60;3.50;;;;;;;6.24;76.03;100934.44;6003679;23;20015;-69
2022/02/24 04:14:10;;;;;;;3.70;3.60;;;;;;;6.82;75.57;101017.00;6006112;23;20033;-71
2022/02/24 04:16:37;;;;;;;4.57;4.38;;;;;;;6.81;75.76;101015.28;6033101;23;20007;-68
2022/02/24 04:19:06;;;;;;;4.10;3.90;;;;;;;6.46;76.44;100957.25;6043453;23;20045;-68
2022/02/24 04:21:35;;;;;;;4.88;4.68;;;;;;;6.52;76.29;100968.34;6031867;23;20035;-71
2022/02/24 04:24:02;;;;;;;3.53;3.42;;;;;;;6.58;76.59;100975.97;5982111;23;20413;-68
2022/02/24 04:26:28;;;;;;;4.78;4.57;;;;;;;6.78;75.94;101005.81;5998542;23;20086;-68
2022/02/24 04:28:55;;;;;;;3.83;3.70;;;;;;;6.73;76.07;100997.25;6037408;23;20015;-67
2022/02/24 04:31:22;;;;;;;3.63;3.53;;;;;;;6.67;76.47;100989.63;6028795;23;20428;-69
2022/02/24 04:33:48;;;;;;;3.70;3.60;;;;;;;6.76;76.86;101007.59;6008891;23;20041;-70
2022/02/24 04:36:16;;;;;;;3.40;3.30;;;;;;;6.57;76.73;100981.22;5979499;23;20019;-70
2022/02/24 04:38:42;;;;;;;3.40;3.30;;;;;;;6.75;75.77;101000.66;5992724;23;20024;-70
2022/02/24 04:41:11;;;;;;;3.70;3.50;;;;;;;6.75;75.68;101006.72;6048042;23;20080;-68
2022/02/24 04:43:38;;;;;;;4.72;4.53;;;;;;;6.68;76.32;100992.19;6010558;23;20015;-68
2022/02/24 04:46:04;;;;;;;5.40;5.05;;;;;;;6.11;76.29;100889.66;6013418;23;20068;-69
2022/02/24 04:48:31;;;;;;;4.80;4.60;;;;;;;6.13;76.50;100902.63;6042964;23;20515;-70
2022/02/24 04:51:00;;;;;;;3.58;3.47;;;;;;;6.27;75.95;100918.69;6017186;23;20035;-70
2022/02/24 04:53:26;;;;;;;4.88;4.68;;;;;;;6.67;76.80;100980.03;6013234;23;20401;-67
2022/02/24 04:55:53;;;;;;;3.53;3.42;;;;;;;6.62;76.18;100973.28;6047906;23;20022;-69
2022/02/24 04:58:21;;;;;;;3.58;3.47;;;;;;;6.11;76.87;100888.81;6039909;23;20033;-71
2022/02/24 05:00:48;;;;;;;3.60;3.50;;;;;;;6.71;76.96;100970.38;6009179;23;20656;-70
2022/02/24 05:03:17;;;;;;;3.40;3.30;;;;;;;6.71;76.39;100971.22;6010770;23;20313;-71
2022/02/24 05:05:44;;;;;;;5.07;4.78;;;;;;;6.72;76.95;100969.47;6004261;23;20059;-69
2022/02/24 05:08:11;;;;;;;3.40;3.30;;;;;;;6.23;76.30;100879.75;6040412;23;20520;-68
2022/02/24 05:10:37;;;;;;;4.72;4.53;;;;;;;6.76;77.01;100958.03;6001101;23;20011;-68
2022/02/24 05:13:04;;;;;;;3.30;3.20;;;;;;;6.63;76.82;100917.59;6019223;23;20022;-68
2022/02/24 05:15:30;;;;;;;3.33;3.22;;;;;;;6.77;76.87;100936.25;6039930;23;20082;-68
2022/02/24 05:17:57;;;;;;;3.30;3.20;;;;;;;6.42;76.34;100865.25;6041538;23;20301;-69
2022/02/24 05:20:28;;;;;;;4.82;4.63;;;;;;;6.52;75.92;100863.19;6043401;23;20408;-68
2022/02/24 05:22:55;;;;;;;3.50;3.40;;;;;;;6.05;76.06;100779.56;6032880;23;20031;-68
2022/02/24 05:25:21;;;;;;;3.67;3.55;;;;;;;6.43;76.40;100837.41;6037626;23;20031;-68
2022/02/24 05:27:49;;;;;;;3.33;3.22;;;;;;;6.53;76.16;100847.47;5998667;23;20035;-69
2022/02/24 05:30:15;;;;;;;3.50;3.40;;;;;;;6.91;75.43;100907.13;6003360;23;20504;-71
2022/02/24 05:32:42;;;;;;;4.07;3.88;;;;;;;6.93;76.21;100900.09;6014048;23;20014;-70
2022/02/24 05:35:10;;;;;;;3.40;3.30;;;;;;;6.98;76.46;100882.53;6002296;23;20015;-70
2022/02/24 05:37:37;;;;;;;4.88;4.68;;;;;;;6.07;75.56;100726.50;6038957;23;20022;-68
2022/02/24 05:40:04;;;;;;;3.60;3.50;;;;;;;6.47;74.59;100792.94;6036131;23;20042;-68
2022/02/24 05:42:31;;;;;;;4.88;4.68;;;;;;;6.88;75.00;100874.16;6044037;23;20007;-68
2022/02/24 05:44:57;;;;;;;3.60;3.50;;;;;;;6.98;75.04;100898.19;6031100;23;20061;-71
2022/02/24 05:47:24;;;;;;;4.25;4.07;;;;;;;6.95;75.36;100893.06;6048455;23;20367;-68
2022/02/24 05:49:51;;;;;;;3.30;3.20;;;;;;;6.86;75.52;100882.94;6048207;23;20100;-70
2022/02/24 05:52:17;;;;;;;3.55;3.45;;;;;;;6.94;76.96;100886.16;5988049;23;20506;-70
2022/02/24 05:54:47;;;;;;;3.55;3.45;;;;;;;6.52;76.44;100821.50;6032276;23;20474;-70
2022/02/24 05:57:14;;;;;;;3.38;3.28;;;;;;;6.40;76.95;100807.09;6033891;23;20026;-70
2022/02/24 05:59:40;;;;;;;4.03;3.83;;;;;;;6.82;77.41;100882.19;6028770;23;20054;-69
2022/02/24 06:02:07;;;;;;;3.45;3.35;;;;;;;6.61;77.42;100854.22;5995708;23;20043;-68
2022/02/24 06:04:33;;;;;;;4.85;4.65;;;;;;;6.58;77.80;100850.81;6001978;23;20037;-70
2022/02/24 06:07:00;;;;;;;3.45;3.35;;;;;;;6.54;78.02;100837.94;6005347;23;20101;-68
2022/02/24 06:09:26;;;;;;;4.22;4.03;;;;;;;6.76;77.67;100878.03;6002552;23;20111;-68
2022/02/24 06:11:53;;;;;;;3.40;3.30;;;;;;;6.18;77.55;100791.31;6009852;23;20043;-70
2022/02/24 06:14:19;;;;;;;3.58;3.47;;;;;;;6.62;77.85;100859.38;6030670;23;20030;-70
2022/02/24 06:16:46;;;;;;;3.40;3.30;;;;;;;6.45;78.04;100833.84;6008607;23;20098;-68
2022/02/24 06:19:12;;;;;;;3.60;3.50;;;;;;;6.68;77.64;100869.63;6042361;23;20078;-68
2022/02/24 06:21:39;;;;;;;4.45;4.25;;;;;;;6.77;77.38;100878.88;6006570;23;20031;-68
2022/02/24 06:24:06;;;;;;;3.47;3.38;;;;;;;6.31;77.26;100797.81;6035521;23;20081;-68
2022/02/24 06:26:32;;;;;;;3.42;3.33;;;;;;;6.81;78.14;100888.31;6016114;23;20017;-68
2022/02/24 06:28:59;;;;;;;3.40;3.30;;;;;;;6.41;77.99;100823.59;6029483;23;20026;-69
2022/02/24 06:31:25;;;;;;;5.07;4.88;;;;;;;6.46;77.68;100827.75;6018373;23;20685;-67
2022/02/24 06:33:55;;;;;;;3.90;3.75;;;;;;;6.94;76.43;100884.38;6035916;23;20042;-70
2022/02/24 06:36:21;;;;;;;3.47;3.38;;;;;;;6.51;74.15;100781.50;5993009;23;20607;-70
2022/02/24 06:38:47;;;;;;;3.53;3.42;;;;;;;7.19;73.02;100881.75;5995425;23;20075;-73
2022/02/24 06:41:14;;;;;;;3.40;3.30;;;;;;;7.21;72.71;100883.47;6034758;23;20035;-70
2022/02/24 06:43:40;;;;;;;3.95;3.78;;;;;;;7.17;73.97;100861.84;5974166;23;20051;-71
2022/02/24 06:46:07;;;;;;;4.30;4.10;;;;;;;7.06;73.12;100843.97;6028401;23;20026;-72
2022/02/24 06:48:34;;;;;;;5.30;5.10;;;;;;;7.28;72.75;100874.53;6032073;23;20101;-71
2022/02/24 06:51:00;;;;;;;3.58;3.47;;;;;;;7.26;73.32;100890.25;5994429;23;20023;-71
2022/02/24 06:53:32;;;;;;;4.65;4.45;;;;;;;6.92;73.43;100804.47;6022784;23;20054;-69
2022/02/24 06:56:00;;;;;;;3.50;3.40;;;;;;;7.11;73.25;100833.38;6043099;23;20006;-72
2022/02/24 06:58:27;;;;;;;4.10;3.90;;;;;;;7.06;72.52;100827.47;5997255;23;20086;-73
2022/02/24 07:00:53;;;;;;;3.40;3.30;;;;;;;6.66;73.43;100758.44;6027643;23;20171;-72
2022/02/24 07:03:20;;;;;;;3.40;3.30;;;;;;;7.30;72.56;100857.06;6005157;23;20025;-72
2022/02/24 07:05:46;;;;;;;3.40;3.30;;;;;;;6.94;72.83;100787.00;6001503;23;20047;-72
2022/02/24 07:08:13;;;;;;;3.53;3.42;;;;;;;7.21;73.58;100821.69;6010777;23;20010;-73
2022/02/24 07:10:39;;;;;;;4.35;4.15;;;;;;;7.15;73.04;100803.63;5996537;23;20152;-73
2022/02/24 07:13:06;;;;;;;3.50;3.40;;;;;;;7.43;72.91;100857.47;6024444;23;20027;-71
2022/02/24 07:15:32;;;;;;;4.82;4.63;;;;;;;7.14;72.54;100810.63;5995675;23;20493;-70
2022/02/24 07:17:59;;;;;;;3.55;3.45;;;;;;;7.27;72.94;100818.84;6000785;23;20019;-69
2022/02/24 07:20:25;;;;;;;4.60;4.40;;;;;;;7.42;71.72;100832.25;5995465;23;20094;-70
2022/02/24 07:22:51;;;;;;;3.47;3.38;;;;;;;7.08;72.23;100796.94;6007404;23;20105;-72
2022/02/24 07:25:18;;;;;;;3.63;3.53;;;;;;;7.36;72.82;100821.13;6019483;23;20035;-73
2022/02/24 07:27:45;;;;;;;3.60;3.50;;;;;;;7.56;73.04;100841.28;6002556;23;20189;-74
2022/02/24 07:30:12;;;;;;;3.70;3.60;;;;;;;7.52;72.55;100829.25;6016888;23;20050;-74
2022/02/24 07:32:39;;;;;;;4.38;4.18;;;;;;;7.23;72.18;100778.09;5992040;23;20386;-73
2022/02/24 07:35:07;;;;;;;3.92;3.72;;;;;;;7.68;69.94;100826.06;6022400;23;20152;-74
2022/02/24 07:37:34;;;;;;;5.18;4.97;;;;;;;7.71;70.15;100823.31;5970736;23;20051;-74
2022/02/24 07:40:03;;;;;;;3.88;3.78;;;;;;;7.72;69.99;100825.88;6025402;23;20034;-75
2022/02/24 07:42:31;;;;;;;5.07;4.88;;;;;;;7.51;69.30;100788.34;5966094;23;20031;-73
2022/02/24 07:44:57;;;;;;;3.60;3.50;;;;;;;7.42;70.23;100764.34;6026467;23;20037;-70
2022/02/24 07:47:24;;;;;;;4.22;4.03;;;;;;;7.11;69.72;100716.75;6016384;23;20417;-71
2022/02/24 07:49:50;;;;;;;3.55;3.45;;;;;;;7.17;70.23;100711.31;6025640;23;20022;-71
2022/02/24 07:52:16;;;;;;;3.53;3.42;;;;;;;7.81;70.63;100800.31;6003348;23;20063;-70
2022/02/24 07:54:43;;;;;;;3.50;3.40;;;;;;;7.49;70.11;100756.22;5989006;23;20425;-68
2022/02/24 07:57:10;;;;;;;3.80;3.70;;;;;;;7.62;70.04;100760.97;6004764;23;20253;-71
2022/02/24 07:59:36;;;;;;;5.00;4.80;;;;;;;7.37;70.10;100713.16;5981278;23;20016;-69
2022/02/24 08:02:03;;;;;;;3.70;3.60;;;;;;;7.64;70.31;100760.03;6021508;23;20015;-70
2022/02/24 08:04:30;;;;;;;4.95;4.75;;;;;;;7.87;70.25;100779.16;6024150;23;20034;-69
2022/02/24 08:06:57;;;;;;;3.95;3.78;;;;;;;7.53;70.45;100733.47;6021166;23;20243;-71
2022/02/24 08:09:24;;;;;;;6.07;5.25;;;;;;;7.91;70.85;100786.81;6021278;23;20032;-70
2022/02/24 08:14:37;;;;;;;5.30;5.05;;;;;;;7.95;70.23;100780.56;6016080;23;20011;-71
2022/02/24 08:17:04;;;;;;;3.70;3.60;;;;;;;7.96;70.02;100782.25;6026026;23;20074;-70
2022/02/24 08:19:31;;;;;;;5.20;5.00;;;;;;;7.54;70.05;100709.91;6000092;23;20204;-70
2022/02/24 08:21:57;;;;;;;3.83;3.72;;;;;;;7.98;69.84;100783.06;6023235;23;20078;-70
2022/02/24 08:24:24;;;;;;;4.45;4.25;;;;;;;8.00;70.41;100775.16;6031922;23;20622;-69
2022/02/24 08:26:51;;;;;;;3.90;3.80;;;;;;;7.86;70.05;100746.97;6006592;23;20023;-72
2022/02/24 08:29:18;;;;;;;3.67;3.58;;;;;;;7.57;69.65;100695.88;5997161;23;20084;-72
2022/02/24 08:31:45;;;;;;;3.65;3.55;;;;;;;7.90;69.56;100743.31;6020127;23;20238;-72
2022/02/24 08:34:11;;;;;;;3.88;3.78;;;;;;;7.81;69.04;100730.63;6023927;23;20031;-73
2022/02/24 08:36:38;;;;;;;4.88;4.68;;;;;;;7.64;69.24;100686.03;5976244;23;20036;-73
2022/02/24 08:39:05;;;;;;;3.75;3.65;;;;;;;8.06;68.19;100734.84;5992730;23;20026;-76
2022/02/24 08:41:39;;;;;;;5.68;5.45;;;;;;;8.23;68.47;100770.75;5970241;23;20027;-71
2022/02/24 08:44:06;;;;;;;5.88;4.38;;;;;;;8.21;70.65;100760.34;6010138;23;20043;-70
2022/02/24 08:46:35;;;;;;;4.95;4.75;;;;;;;7.45;71.72;100647.59;5970373;23;20393;-70
2022/02/24 08:49:02;;;;;;;4.10;3.90;;;;;;;7.80;71.75;100708.03;6008781;23;20282;-70
2022/02/24 08:51:29;;;;;;;4.97;4.78;;;;;;;7.94;72.98;100715.31;5965125;23;20434;-71
2022/02/24 08:53:55;;;;;;;3.67;3.58;;;;;;;7.62;73.41;100674.78;6008264;23;20464;-71
2022/02/24 08:56:21;;;;;;;3.92;3.80;;;;;;;8.09;73.34;100732.94;5995216;23;20452;-71
2022/02/24 08:58:48;;;;;;;4.20;4.00;;;;;;;8.06;74.85;100740.06;6001658;23;20110;-71
2022/02/24 09:01:14;;;;;;;3.70;3.60;;;;;;;7.84;74.47;100699.16;5986369;23;20113;-72
2022/02/24 09:03:41;;;;;;;4.35;4.15;;;;;;;7.65;74.33;100680.75;5999260;23;20463;-71
2022/02/24 09:06:08;;;;;;;4.28;4.07;;;;;;;7.68;74.65;100664.13;5957971;23;20043;-69
2022/02/24 09:08:34;;;;;;;5.00;4.80;;;;;;;7.74;74.56;100669.94;6007415;23;20034;-70
2022/02/24 09:11:01;;;;;;;3.75;3.65;;;;;;;8.13;75.18;100729.28;5997608;23;20027;-71
2022/02/24 09:13:27;;;;;;;5.22;5.03;;;;;;;7.53;75.01;100614.19;5995946;23;20042;-71
2022/02/24 09:15:54;;;;;;;4.00;3.80;;;;;;;8.13;75.48;100723.22;5994647;23;20027;-71
2022/02/24 09:18:20;;;;;;;3.80;3.70;;;;;;;7.48;75.05;100616.16;5991319;23;20048;-71
2022/02/24 09:20:47;;;;;;;3.70;3.60;;;;;;;8.04;75.99;100702.69;5994598;23;20097;-70
2022/02/24 09:23:13;;;;;;;3.75;3.65;;;;;;;8.07;75.73;100703.41;6001379;23;20090;-70
2022/02/24 09:25:40;;;;;;;4.30;4.10;;;;;;;8.12;75.93;100706.69;5971643;23;20074;-70
2022/02/24 09:28:07;;;;;;;4.20;4.00;;;;;;;7.00;75.81;100507.59;5997518;23;20018;-69
2022/02/24 09:30:33;;;;;;;4.95;4.75;;;;;;;8.13;75.26;100694.47;5983200;23;20043;-69
2022/02/24 09:33:05;;;;;;;3.60;3.50;;;;;;;6.87;75.12;100488.97;5984890;23;20596;-70
2022/02/24 09:35:31;;;;;;;4.85;4.65;;;;;;;7.55;75.65;100601.91;5979744;23;20098;-70
2022/02/24 09:37:58;;;;;;;3.58;3.47;;;;;;;8.10;75.78;100692.00;5990670;23;20061;-69
2022/02/24 09:40:25;;;;;;;4.18;4.00;;;;;;;8.20;76.62;100677.63;6023562;23;20035;-70
2022/02/24 09:43:14;;;;;;;3.88;3.75;;;;;;;8.39;75.59;100677.66;5995407;23;20226;-70
2022/02/24 09:45:42;;;;;;;3.88;3.78;;;;;;;8.35;75.64;100678.72;6023395;23;20080;-70
2022/02/24 09:48:09;;;;;;;4.00;3.80;;;;;;;8.16;75.93;100649.91;6004692;23;20082;-69
2022/02/24 09:50:37;;;;;;;4.80;4.60;;;;;;;8.23;77.19;100671.41;6035379;23;20018;-70
2022/02/24 09:53:04;;;;;;;3.80;3.70;;;;;;;7.32;77.30;100521.09;6015042;23;20076;-71
2022/02/24 09:55:30;;;;;;;5.05;4.85;;;;;;;8.16;77.25;100656.00;6030811;23;20502;-70
2022/02/24 09:57:57;;;;;;;3.80;3.60;;;;;;;8.04;77.58;100616.44;5996679;23;20027;-71
2022/02/24 10:00:23;;;;;;;3.92;3.78;;;;;;;7.41;77.47;100514.63;5998359;23;20362;-71
2022/02/24 10:02:49;;;;;;;3.65;3.53;;;;;;;8.26;78.18;100630.31;6028834;23;20031;-73
2022/02/24 10:05:16;;;;;;;3.35;3.25;;;;;;;8.09;78.17;100601.41;6028420;23;20405;-73
2022/02/24 10:07:46;;;;;;;4.45;4.25;;;;;;;7.84;77.68;100551.97;6036630;23;20027;-73
2022/02/24 10:10:27;;;;;;;3.63;3.53;;;;;;;8.10;77.28;100590.06;6031899;23;20089;-73
2022/02/24 10:13:09;;;;;;;3.60;3.50;;;;;;;8.28;76.97;100604.94;6016914;23;20047;-73
2022/02/24 10:15:37;;;;;;;5.22;5.03;;;;;;;8.30;76.40;100600.50;5978165;23;20053;-73
2022/02/24 10:18:15;;;;;;;3.58;3.47;;;;;;;8.34;76.43;100596.81;6032127;23;20065;-73
2022/02/24 10:20:50;;;;;;;3.60;3.50;;;;;;;8.03;75.45;100518.06;6008228;23;20038;-73
2022/02/24 10:23:20;;;;;;;3.60;3.50;;;;;;;8.40;75.90;100590.47;6024784;23;20002;-72
2022/02/24 10:25:51;;;;;;;3.60;3.50;;;;;;;8.49;76.24;100577.00;6038756;23;20046;-70
2022/02/24 10:28:30;;;;;;;3.72;3.63;;;;;;;8.63;76.54;100575.53;6000908;23;20017;-72
2022/02/24 10:30:57;;;;;;;4.00;3.80;;;;;;;8.38;75.86;100495.56;6009992;23;20061;-72
2022/02/24 10:33:26;;;;;;;4.30;4.13;;;;;;;8.54;76.35;100516.66;6025157;23;20274;-70
2022/02/24 10:35:53;;;;;;;3.90;3.72;;;;;;;8.78;76.29;100546.03;5974523;23;20082;-70
2022/02/24 10:38:19;;;;;;;4.10;3.90;;;;;;;9.17;76.13;100574.69;5996456;23;20019;-70
2022/02/24 10:40:48;;;;;;;3.63;3.53;;;;;;;9.22;76.14;100536.94;6012209;23;20015;-72
2022/02/24 10:43:22;;;;;;;4.20;4.00;;;;;;;9.48;75.30;100561.84;6023709;23;20098;-70
2022/02/24 10:46:02;;;;;;;3.70;3.60;;;;;;;9.67;74.90;100565.25;6009708;23;20077;-73
2022/02/24 10:48:30;;;;;;;4.82;4.63;;;;;;;9.75;74.13;100562.25;6005102;23;20234;-70
2022/02/24 10:51:05;;;;;;;4.00;3.80;;;;;;;9.65;73.94;100547.91;6039912;23;20023;-72
2022/02/24 10:53:33;;;;;;;5.47;5.28;;;;;;;9.67;73.12;100548.69;6032840;23;20067;-73
2022/02/24 10:56:08;;;;;;;4.22;4.03;;;;;;;9.34;73.59;100505.78;5996627;23;20015;-71
2022/02/24 10:58:45;;;;;;;5.88;5.57;;;;;;;9.64;74.09;100522.63;6003740;23;20023;-70
2022/02/24 11:01:18;;;;;;;4.30;4.10;;;;;;;9.79;73.71;100522.69;6028495;23;20011;-72
2022/02/24 11:03:46;;;;;;;4.43;4.22;;;;;;;9.81;72.96;100493.78;5995487;23;20035;-72
2022/02/24 11:06:16;;;;;;;4.10;3.90;;;;;;;10.16;72.38;100522.53;6027532;23;20397;-73
2022/02/24 11:08:44;;;;;;;4.30;4.10;;;;;;;10.25;72.25;100522.03;6023446;23;20019;-73
2022/02/24 11:11:28;;;;;;;4.10;3.90;;;;;;;10.01;70.99;100445.56;6003326;23;20020;-74
2022/02/24 11:14:00;;;;;;;4.30;4.10;;;;;;;10.23;70.66;100473.25;5998292;23;20516;-74
2022/02/24 11:16:28;;;;;;;5.80;5.53;;;;;;;9.16;69.65;100323.41;5994771;23;20015;-73
2022/02/24 11:18:59;;;;;;;4.30;4.10;;;;;;;10.23;69.77;100496.84;6024070;23;20018;-71
2022/02/24 11:21:27;;;;;;;4.72;4.53;;;;;;;10.02;69.57;100478.69;6000882;23;20447;-70
2022/02/24 11:23:55;;;;;;;4.40;4.20;;;;;;;9.89;69.19;100481.13;6033190;23;20034;-70
2022/02/24 11:26:21;;;;;;;4.38;4.18;;;;;;;9.78;68.34;100478.22;6007551;23;20114;-71
2022/02/24 11:29:25;;;;;;;4.20;4.00;;;;;;;9.68;69.17;100474.38;5986339;23;20031;-70
2022/02/24 11:31:59;;;;;;;4.20;4.00;;;;;;;9.52;69.74;100461.22;6012046;23;20050;-71
2022/02/24 11:34:56;;;;;;;5.22;5.03;;;;;;;9.48;70.29;100457.06;6019209;23;20473;-73
2022/02/24 11:37:38;;;;;;;4.45;4.25;;;;;;;9.24;70.66;100439.09;5998316;23;20027;-73
2022/02/24 11:40:18;;;;;;;4.00;3.80;;;;;;;9.34;70.65;100457.78;6035539;23;20029;-72